createdAt,value
2022-08-09T00:00:04.690Z,60.70
2022-08-09T00:02:33.110Z,60.70
2022-08-09T00:05:03.099Z,60.80
2022-08-09T00:07:46.343Z,60.90
2022-08-09T00:10:14.348Z,60.90
2022-08-09T00:12:52.531Z,61.00
2022-08-09T00:15:19.698Z,61.10
2022-08-09T00:18:04.615Z,61.10
2022-08-09T00:20:35.993Z,61.20
2022-08-09T00:23:54.108Z,61.40
2022-08-09T00:25:51.830Z,61.70
2022-08-09T00:28:18.518Z,61.80
2022-08-09T00:30:45.216Z,61.80
2022-08-09T00:33:12.267Z,61.80
2022-08-09T00:35:42.797Z,61.70
2022-08-09T00:38:10.044Z,61.80
2022-08-09T00:40:37.258Z,61.80
2022-08-09T00:44:11.018Z,61.90
2022-08-09T00:45:54.143Z,62.50
2022-08-09T00:48:20.775Z,61.90
2022-08-09T00:50:52.069Z,61.90
2022-08-09T00:53:24.109Z,62.00
2022-08-09T00:56:05.186Z,62.30
2022-08-09T00:58:36.010Z,62.30
2022-08-09T01:01:03.247Z,62.40
2022-08-09T01:03:29.867Z,62.50
2022-08-09T01:05:59.278Z,62.60
2022-08-09T01:08:40.213Z,62.70
2022-08-09T01:11:16.030Z,62.70
2022-08-09T01:13:58.754Z,62.80
2022-08-09T01:16:27.024Z,62.90
2022-08-09T01:19:02.484Z,63.00
2022-08-09T01:21:41.254Z,63.20
2022-08-09T01:24:11.730Z,63.30
2022-08-09T01:26:38.656Z,63.40
2022-08-09T01:29:05.115Z,63.50
2022-08-09T01:32:30.181Z,63.50
2022-08-09T01:34:18.461Z,63.50
2022-08-09T01:36:46.701Z,63.60
2022-08-09T01:39:14.627Z,63.60
2022-08-09T01:41:55.690Z,63.60
2022-08-09T01:44:28.823Z,63.70
2022-08-09T01:46:55.286Z,63.70
2022-08-09T01:49:24.257Z,63.70
2022-08-09T01:51:53.408Z,63.60
2022-08-09T01:54:20.983Z,63.60
2022-08-09T01:56:51.751Z,63.70
2022-08-09T01:59:18.457Z,63.60
2022-08-09T02:01:58.205Z,63.80
2022-08-09T02:04:27.264Z,63.80
2022-08-09T02:06:58.978Z,63.80
2022-08-09T02:09:42.316Z,63.80
2022-08-09T02:12:09.329Z,63.80
2022-08-09T02:14:35.809Z,63.80
2022-08-09T02:17:15.127Z,63.80
2022-08-09T02:19:49.913Z,63.80
2022-08-09T02:22:16.380Z,63.80
2022-08-09T02:24:46.304Z,63.90
2022-08-09T02:27:18.655Z,64.00
2022-08-09T02:29:45.232Z,64.10
2022-08-09T02:32:14.988Z,64.10
2022-08-09T02:34:51.960Z,64.10
2022-08-09T02:37:22.467Z,64.20
2022-08-09T02:40:01.599Z,64.90
2022-08-09T02:42:28.593Z,64.30
2022-08-09T02:44:55.310Z,64.20
2022-08-09T02:47:23.414Z,64.30
2022-08-09T02:49:55.285Z,64.50
2022-08-09T02:52:27.899Z,64.40
2022-08-09T02:54:57.346Z,64.70
2022-08-09T02:57:24.041Z,64.60
2022-08-09T03:00:11.461Z,64.70
2022-08-09T03:02:38.263Z,64.60
2022-08-09T03:05:24.641Z,64.60
2022-08-09T03:07:55.216Z,64.60
2022-08-09T03:10:21.936Z,64.60
2022-08-09T03:12:49.392Z,64.70
2022-08-09T03:15:18.700Z,64.70
2022-08-09T03:17:46.488Z,64.70
2022-08-09T03:20:24.317Z,64.70
2022-08-09T03:22:58.331Z,64.80
2022-08-09T03:25:58.455Z,65.50
2022-08-09T03:28:25.950Z,65.20
2022-08-09T03:30:52.414Z,65.30
2022-08-09T03:33:19.556Z,65.40
2022-08-09T03:36:13.981Z,65.50
2022-08-09T03:38:32.556Z,65.50
2022-08-09T03:40:59.020Z,65.70
2022-08-09T03:43:25.487Z,65.60
2022-08-09T03:46:05.255Z,65.70
2022-08-09T03:48:51.670Z,65.50
2022-08-09T03:51:57.535Z,65.50
2022-08-09T03:54:04.971Z,65.50
2022-08-09T03:56:37.220Z,65.50
2022-08-09T03:59:07.524Z,65.50
2022-08-09T04:01:40.200Z,65.50
2022-08-09T04:04:09.949Z,65.70
2022-08-09T04:06:41.332Z,65.80
2022-08-09T04:09:44.416Z,65.70
2022-08-09T04:12:02.494Z,65.90
2022-08-09T04:14:53.946Z,66.10
2022-08-09T04:17:15.603Z,66.10
2022-08-09T04:19:51.215Z,66.10
2022-08-09T04:22:22.320Z,66.30
2022-08-09T04:24:48.794Z,66.30
2022-08-09T04:27:15.261Z,66.30
2022-08-09T04:29:49.929Z,66.30
2022-08-09T04:32:16.901Z,66.30
2022-08-09T04:34:54.444Z,66.30
2022-08-09T04:37:24.015Z,66.30
2022-08-09T04:40:10.470Z,66.50
2022-08-09T04:42:36.936Z,66.30
2022-08-09T04:45:03.995Z,66.50
2022-08-09T04:47:45.149Z,66.40
2022-08-09T04:50:16.910Z,66.30
2022-08-09T04:52:46.261Z,66.50
2022-08-09T04:55:14.727Z,66.60
2022-08-09T04:57:59.411Z,66.60
2022-08-09T05:00:31.856Z,66.60
2022-08-09T05:03:01.099Z,66.60
2022-08-09T05:05:52.623Z,66.70
2022-08-09T05:08:31.167Z,66.90
2022-08-09T05:10:57.637Z,66.80
2022-08-09T05:13:27.551Z,67.00
2022-08-09T05:15:56.878Z,67.10
2022-08-09T05:18:38.045Z,67.30
2022-08-09T05:21:22.777Z,67.30
2022-08-09T05:23:57.780Z,67.10
2022-08-09T05:26:37.112Z,67.10
2022-08-09T05:29:17.712Z,67.10
2022-08-09T05:31:49.302Z,67.10
2022-08-09T05:34:23.028Z,67.20
2022-08-09T05:36:56.697Z,67.60
2022-08-09T05:39:29.369Z,67.80
2022-08-09T05:41:56.575Z,67.70
2022-08-09T05:44:29.209Z,67.60
2022-08-09T05:46:59.413Z,67.60
2022-08-09T05:50:24.461Z,68.00
2022-08-09T05:52:12.329Z,67.90
2022-08-09T05:54:39.775Z,67.90
2022-08-09T05:57:07.280Z,67.80
2022-08-09T05:59:39.329Z,67.70
2022-08-09T06:02:08.357Z,67.50
2022-08-09T06:04:36.471Z,67.50
2022-08-09T06:07:02.945Z,67.80
2022-08-09T06:09:55.162Z,67.80
2022-08-09T06:12:15.858Z,67.70
2022-08-09T06:14:43.653Z,67.60
2022-08-09T06:17:10.150Z,67.50
2022-08-09T06:19:36.982Z,67.70
2022-08-09T06:22:03.506Z,67.80
2022-08-09T06:24:29.970Z,67.80
2022-08-09T06:26:57.730Z,67.70
2022-08-09T06:29:24.468Z,67.60
2022-08-09T06:32:08.515Z,67.70
2022-08-09T06:34:35.579Z,67.50
2022-08-09T06:37:03.144Z,67.40
2022-08-09T06:39:57.714Z,67.40
2022-08-09T06:42:16.061Z,67.50
2022-08-09T06:44:42.511Z,67.40
2022-08-09T06:47:09.961Z,67.40
2022-08-09T06:50:11.270Z,67.40
2022-08-09T06:52:23.642Z,67.40
2022-08-09T06:54:51.787Z,67.30
2022-08-09T06:57:20.666Z,67.30
2022-08-09T07:00:52.322Z,67.10
2022-08-09T07:02:53.587Z,66.80
2022-08-09T07:05:20.073Z,66.60
2022-08-09T07:07:59.859Z,66.60
2022-08-09T07:10:32.036Z,66.60
2022-08-09T07:12:58.827Z,66.50
2022-08-09T07:16:35.257Z,66.40
2022-08-09T07:18:11.738Z,66.30
2022-08-09T07:20:40.838Z,66.20
2022-08-09T07:23:18.640Z,66.10
2022-08-09T07:25:46.117Z,66.00
2022-08-09T07:28:19.342Z,66.00
2022-08-09T07:30:52.754Z,65.80
2022-08-09T07:33:20.108Z,65.80
2022-08-09T07:35:54.424Z,65.80
2022-08-09T07:38:21.145Z,65.60
2022-08-09T07:41:08.349Z,65.60
2022-08-09T07:43:41.082Z,65.60
2022-08-09T07:46:19.078Z,65.50
2022-08-09T07:48:46.010Z,65.30
2022-08-09T07:52:03.437Z,65.20
2022-08-09T07:54:07.424Z,65.00
2022-08-09T07:56:34.591Z,64.80
2022-08-09T07:59:04.425Z,64.70
2022-08-09T08:01:39.708Z,64.50
2022-08-09T08:04:10.471Z,64.40
2022-08-09T08:06:37.284Z,64.30
2022-08-09T08:09:38.726Z,64.10
2022-08-09T08:12:19.775Z,63.70
2022-08-09T08:14:54.650Z,63.60
2022-08-09T08:17:35.305Z,63.20
2022-08-09T08:20:12.608Z,62.90
2022-08-09T08:22:39.826Z,62.30
2022-08-09T08:25:09.307Z,61.80
2022-08-09T08:27:40.651Z,61.40
2022-08-09T08:30:07.513Z,60.80
2022-08-09T08:32:52.744Z,59.80
2022-08-09T08:35:22.389Z,59.20
2022-08-09T08:37:59.654Z,58.90
2022-08-09T08:40:31.079Z,58.50
2022-08-09T08:42:59.013Z,58.20
2022-08-09T08:45:37.474Z,57.80
2022-08-09T08:48:05.295Z,57.40
2022-08-09T08:50:31.860Z,57.00
2022-08-09T08:53:00.518Z,56.70
2022-08-09T08:55:27.397Z,56.40
2022-08-09T08:57:56.460Z,55.60
2022-08-09T09:00:29.680Z,55.40
2022-08-09T09:02:59.415Z,54.50
2022-08-09T09:05:58.859Z,54.30
2022-08-09T09:08:30.988Z,53.60
2022-08-09T09:10:58.209Z,53.70
2022-08-09T09:13:24.663Z,53.70
2022-08-09T09:16:08.487Z,52.20
2022-08-09T09:18:36.223Z,51.90
2022-08-09T09:21:02.704Z,51.00
2022-08-09T09:23:34.370Z,51.10
2022-08-09T09:26:12.329Z,51.00
2022-08-09T09:29:03.663Z,51.10
2022-08-09T09:32:06.969Z,50.50
2022-08-09T09:34:14.716Z,50.20
2022-08-09T09:36:52.813Z,49.40
2022-08-09T09:39:21.086Z,49.30
2022-08-09T09:41:49.050Z,49.30
2022-08-09T09:44:25.885Z,49.00
2022-08-09T09:46:54.538Z,48.60
2022-08-09T09:49:31.963Z,48.40
2022-08-09T09:52:07.669Z,48.40
2022-08-09T09:54:55.142Z,47.40
2022-08-09T09:58:01.333Z,47.40
2022-08-09T10:00:08.818Z,47.20
2022-08-09T10:02:38.170Z,46.70
2022-08-09T10:05:06.672Z,46.60
2022-08-09T10:07:33.346Z,46.50
2022-08-09T10:09:59.992Z,46.30
2022-08-09T10:12:31.424Z,46.10
2022-08-09T10:14:58.083Z,45.20
2022-08-09T10:17:50.829Z,45.30
2022-08-09T10:20:15.312Z,45.00
2022-08-09T10:22:42.058Z,45.10
2022-08-09T10:25:12.279Z,44.90
2022-08-09T10:27:55.783Z,44.60
2022-08-09T10:33:10.337Z,44.30
2022-08-09T10:35:56.789Z,44.20
2022-08-09T10:38:34.456Z,44.00
2022-08-09T10:41:13.952Z,43.90
2022-08-09T10:43:46.724Z,43.80
2022-08-09T10:46:20.018Z,43.70
2022-08-09T10:48:52.238Z,43.40
2022-08-09T10:51:18.925Z,42.50
2022-08-09T10:53:46.967Z,42.70
2022-08-09T10:56:22.578Z,42.30
2022-08-09T10:58:49.648Z,42.10
2022-08-09T11:03:10.913Z,42.20
2022-08-09T11:04:03.902Z,42.00
2022-08-09T11:06:32.896Z,41.20
2022-08-09T11:09:15.384Z,40.90
2022-08-09T11:11:43.677Z,41.00
2022-08-09T11:14:18.452Z,40.60
2022-08-09T11:16:54.890Z,40.60
2022-08-09T11:19:21.356Z,40.10
2022-08-09T11:22:18.452Z,39.80
2022-08-09T11:24:50.806Z,39.60
2022-08-09T11:27:17.300Z,40.10
2022-08-09T11:30:06.334Z,39.60
2022-08-09T11:32:50.205Z,39.60
2022-08-09T11:35:18.032Z,39.30
2022-08-09T11:37:44.537Z,39.00
2022-08-09T11:40:17.968Z,38.60
2022-08-09T11:42:44.912Z,38.80
2022-08-09T11:45:11.430Z,38.90
2022-08-09T11:47:40.413Z,38.80
2022-08-09T11:50:56.623Z,38.30
2022-08-09T11:53:51.327Z,38.40
2022-08-09T11:55:52.413Z,38.70
2022-08-09T11:58:32.330Z,38.20
2022-08-09T12:00:59.732Z,37.70
2022-08-09T12:03:55.047Z,36.90
2022-08-09T12:06:12.689Z,37.20
2022-08-09T12:08:39.158Z,37.10
2022-08-09T12:11:12.681Z,36.40
2022-08-09T12:14:10.542Z,36.20
2022-08-09T12:16:37.910Z,36.50
2022-08-09T12:19:05.254Z,36.30
2022-08-09T12:21:38.730Z,36.40
2022-08-09T12:24:14.773Z,36.40
2022-08-09T12:26:41.687Z,36.30
2022-08-09T12:29:29.825Z,35.90
2022-08-09T12:32:02.291Z,35.40
2022-08-09T12:34:29.923Z,35.60
2022-08-09T12:36:58.844Z,35.50
2022-08-09T12:39:37.658Z,35.50
2022-08-09T12:42:04.483Z,35.00
2022-08-09T12:44:37.454Z,35.10
2022-08-09T12:47:04.804Z,35.20
2022-08-09T12:49:31.439Z,35.10
2022-08-09T12:52:02.066Z,34.90
2022-08-09T12:54:29.746Z,34.60
2022-08-09T12:56:57.624Z,34.60
2022-08-09T12:59:24.091Z,34.30
2022-08-09T13:01:50.637Z,34.50
2022-08-09T13:04:33.262Z,34.30
2022-08-09T13:07:03.610Z,34.40
2022-08-09T13:09:30.479Z,34.40
2022-08-09T13:12:02.094Z,34.00
2022-08-09T13:14:42.563Z,33.90
2022-08-09T13:17:14.123Z,33.40
2022-08-09T13:20:08.829Z,33.20
2022-08-09T13:23:00.215Z,33.10
2022-08-09T13:25:15.677Z,33.30
2022-08-09T13:27:54.884Z,33.20
2022-08-09T13:30:49.173Z,33.20
2022-08-09T13:33:11.925Z,33.00
2022-08-09T13:36:38.867Z,33.20
2022-08-09T13:38:54.363Z,32.70
2022-08-09T13:41:31.150Z,32.50
2022-08-09T13:44:05.466Z,33.00
2022-08-09T13:47:16.905Z,32.90
2022-08-09T13:49:18.708Z,32.70
2022-08-09T13:51:52.397Z,32.90
2022-08-09T13:54:27.808Z,33.00
2022-08-09T13:56:56.889Z,33.10
2022-08-09T13:59:25.383Z,32.80
2022-08-09T14:02:01.368Z,32.90
2022-08-09T14:04:28.903Z,32.70
2022-08-09T14:06:55.458Z,32.80
2022-08-09T14:09:22.220Z,32.60
2022-08-09T14:11:48.795Z,32.10
2022-08-09T14:14:26.172Z,31.90
2022-08-09T14:16:54.084Z,32.00
2022-08-09T14:19:20.660Z,32.20
2022-08-09T14:21:48.981Z,32.40
2022-08-09T14:24:22.071Z,32.90
2022-08-09T14:26:58.292Z,31.80
2022-08-09T14:29:25.873Z,31.80
2022-08-09T14:32:13.407Z,31.50
2022-08-09T14:34:43.061Z,31.80
2022-08-09T14:37:09.517Z,31.90
2022-08-09T14:39:45.088Z,31.70
2022-08-09T14:42:40.577Z,31.80
2022-08-09T14:45:01.040Z,31.70
2022-08-09T14:47:44.997Z,31.50
2022-08-09T14:50:13.274Z,31.60
2022-08-09T14:52:42.792Z,31.60
2022-08-09T14:55:09.265Z,31.50
2022-08-09T14:57:43.402Z,31.20
2022-08-09T15:00:10.263Z,31.50
2022-08-09T15:02:36.728Z,31.50
2022-08-09T15:05:04.065Z,31.70
2022-08-09T15:07:35.113Z,31.50
2022-08-09T15:10:07.067Z,31.90
2022-08-09T15:12:37.886Z,32.10
2022-08-09T15:15:04.350Z,31.70
2022-08-09T15:17:42.635Z,31.60
2022-08-09T15:20:15.388Z,31.50
2022-08-09T15:23:55.961Z,31.80
2022-08-09T15:25:46.832Z,31.70
2022-08-09T15:28:26.120Z,31.80
2022-08-09T15:31:00.633Z,32.00
2022-08-09T15:34:17.514Z,31.70
2022-08-09T15:36:20.143Z,32.00
2022-08-09T15:38:55.092Z,32.10
2022-08-09T15:41:23.052Z,32.30
2022-08-09T15:43:58.289Z,32.20
2022-08-09T15:46:32.610Z,32.20
2022-08-09T15:49:22.031Z,32.20
2022-08-09T15:52:04.086Z,32.40
2022-08-09T15:54:44.238Z,32.40
2022-08-09T15:57:15.068Z,32.30
2022-08-09T15:59:51.581Z,32.30
2022-08-09T16:02:18.236Z,32.10
2022-08-09T16:04:44.698Z,32.00
2022-08-09T16:07:11.173Z,32.40
2022-08-09T16:09:57.878Z,32.50
2022-08-09T16:12:26.311Z,32.40
2022-08-09T16:14:57.383Z,32.10
2022-08-09T16:17:23.904Z,31.90
2022-08-09T16:20:04.842Z,32.20
2022-08-09T16:22:31.951Z,32.20
2022-08-09T16:24:59.616Z,32.10
2022-08-09T16:27:29.915Z,32.30
2022-08-09T16:30:00.762Z,32.40
2022-08-09T16:32:34.463Z,32.30
2022-08-09T16:35:02.482Z,32.50
2022-08-09T16:37:55.765Z,32.50
2022-08-09T16:40:30.067Z,32.40
2022-08-09T16:43:02.227Z,32.30
2022-08-09T16:45:28.849Z,32.10
2022-08-09T16:48:40.748Z,32.20
2022-08-09T16:50:41.774Z,32.40
2022-08-09T16:53:26.821Z,32.40
2022-08-09T16:56:03.883Z,32.90
2022-08-09T16:58:35.865Z,32.80
2022-08-09T17:01:03.335Z,33.00
2022-08-09T17:03:30.424Z,33.20
2022-08-09T17:06:06.615Z,33.20
2022-08-09T17:09:00.183Z,33.20
2022-08-09T17:11:41.234Z,33.30
2022-08-09T17:14:08.502Z,33.40
2022-08-09T17:16:53.229Z,33.40
2022-08-09T17:19:20.941Z,33.60
2022-08-09T17:21:47.571Z,33.50
2022-08-09T17:24:20.431Z,33.40
2022-08-09T17:26:53.525Z,33.50
2022-08-09T17:29:20.975Z,33.60
2022-08-09T17:31:49.316Z,33.80
2022-08-09T17:35:00.826Z,34.00
2022-08-09T17:37:02.485Z,34.00
2022-08-09T17:39:52.265Z,34.20
2022-08-09T17:42:40.967Z,34.40
2022-08-09T17:45:01.909Z,34.70
2022-08-09T17:47:32.900Z,34.90
2022-08-09T17:50:17.209Z,34.80
2022-08-09T17:52:51.732Z,34.90
2022-08-09T17:55:18.205Z,34.90
2022-08-09T17:58:03.626Z,35.00
2022-08-09T18:00:33.446Z,35.00
2022-08-09T18:03:10.779Z,35.20
2022-08-09T18:05:43.325Z,35.40
2022-08-09T18:08:11.123Z,35.50
2022-08-09T18:10:39.772Z,35.70
2022-08-09T18:13:38.768Z,35.90
2022-08-09T18:16:08.367Z,36.10
2022-08-09T18:18:35.730Z,36.30
2022-08-09T18:21:22.964Z,36.40
2022-08-09T18:24:09.673Z,36.60
2022-08-09T18:26:37.912Z,36.80
2022-08-09T18:30:42.420Z,37.00
2022-08-09T18:31:55.359Z,37.10
2022-08-09T18:34:23.928Z,37.40
2022-08-09T18:36:50.842Z,37.50
2022-08-09T18:39:20.044Z,37.70
2022-08-09T18:41:53.275Z,37.90
2022-08-09T18:44:20.186Z,38.30
2022-08-09T18:47:06.316Z,38.60
2022-08-09T18:49:42.973Z,38.90
2022-08-09T18:52:13.320Z,39.20
2022-08-09T18:54:40.748Z,40.10
2022-08-09T18:57:16.339Z,39.60
2022-08-09T18:59:51.192Z,39.90
2022-08-09T19:02:20.998Z,40.10
2022-08-09T19:05:04.428Z,40.40
2022-08-09T19:07:41.853Z,40.70
2022-08-09T19:10:18.088Z,41.00
2022-08-09T19:12:45.574Z,41.20
2022-08-09T19:15:22.821Z,41.30
2022-08-09T19:17:56.250Z,41.50
2022-08-09T19:20:24.692Z,41.70
2022-08-09T19:22:54.746Z,42.00
2022-08-09T19:25:41.268Z,42.30
2022-08-09T19:28:08.016Z,42.40
2022-08-09T19:30:39.690Z,42.30
2022-08-09T19:33:18.967Z,42.50
2022-08-09T19:35:56.873Z,42.50
2022-08-09T19:38:24.184Z,42.80
2022-08-09T19:40:50.766Z,43.50
2022-08-09T19:44:00.350Z,43.00
2022-08-09T19:46:04.164Z,43.10
2022-08-09T19:49:00.694Z,43.20
2022-08-09T19:51:17.654Z,43.20
2022-08-09T19:53:47.879Z,43.30
2022-08-09T19:56:15.494Z,43.70
2022-08-09T19:58:42.272Z,43.80
2022-08-09T20:01:23.108Z,43.90
2022-08-09T20:04:12.726Z,44.20
2022-08-09T20:06:36.509Z,44.30
2022-08-09T20:09:04.594Z,44.50
2022-08-09T20:11:43.029Z,44.50
2022-08-09T20:14:15.637Z,44.70
2022-08-09T20:16:49.868Z,44.80
2022-08-09T20:19:47.879Z,44.80
2022-08-09T20:22:09.912Z,44.90
2022-08-09T20:24:36.631Z,45.00
2022-08-09T20:27:08.272Z,45.00
2022-08-09T20:29:37.339Z,45.10
2022-08-09T20:32:28.624Z,45.20
2022-08-09T20:34:50.604Z,45.30
2022-08-09T20:37:21.514Z,45.20
2022-08-09T20:40:15.152Z,45.50
2022-08-09T20:42:37.757Z,45.80
2022-08-09T20:46:01.201Z,46.30
2022-08-09T20:47:51.135Z,46.20
2022-08-09T20:50:47.224Z,46.30
2022-08-09T20:53:04.094Z,46.40
2022-08-09T20:55:47.518Z,46.60
2022-08-09T20:58:26.993Z,46.50
2022-08-09T21:01:14.077Z,46.70
2022-08-09T21:05:48.943Z,47.60
2022-08-09T21:06:31.807Z,47.10
2022-08-09T21:08:58.285Z,47.20
2022-08-09T21:14:11.646Z,47.50
2022-08-09T21:16:38.135Z,47.70
2022-08-09T21:20:18.594Z,47.60
2022-08-09T21:21:56.170Z,47.70
2022-08-09T21:24:28.799Z,47.90
2022-08-09T21:26:58.912Z,48.00
2022-08-09T21:29:25.390Z,48.20
2022-08-09T21:31:51.869Z,48.40
2022-08-09T21:34:28.579Z,48.50
2022-08-09T21:36:56.412Z,48.40
2022-08-09T21:39:27.983Z,48.30
2022-08-09T21:42:10.662Z,48.30
2022-08-09T21:44:37.927Z,48.30
2022-08-09T21:47:04.557Z,48.50
2022-08-09T21:49:39.142Z,48.50
2022-08-09T21:52:07.474Z,48.80
2022-08-09T21:54:41.661Z,49.10
2022-08-09T21:57:37.137Z,49.40
2022-08-09T21:59:59.120Z,49.40
2022-08-09T22:02:35.970Z,49.50
2022-08-09T22:05:16.875Z,49.80
2022-08-09T22:07:53.161Z,50.00
2022-08-09T22:10:23.227Z,50.20
2022-08-09T22:12:50.573Z,50.30
2022-08-09T22:15:18.586Z,50.30
2022-08-09T22:17:47.373Z,50.30
2022-08-09T22:20:16.983Z,50.60
2022-08-09T22:22:48.697Z,50.60
2022-08-09T22:26:05.500Z,50.70
2022-08-09T22:28:01.711Z,50.80
2022-08-09T22:30:33.841Z,50.90
2022-08-09T22:33:00.299Z,51.00
2022-08-09T22:36:01.897Z,51.10
2022-08-09T22:38:14.632Z,51.20
2022-08-09T22:40:49.072Z,51.30
2022-08-09T22:44:01.714Z,51.60
2022-08-09T22:48:15.520Z,51.80
2022-08-09T22:49:01.726Z,51.70
2022-08-09T22:51:31.988Z,51.80
2022-08-09T22:54:02.590Z,51.80
2022-08-09T22:56:34.329Z,51.70
2022-08-09T22:59:01.028Z,51.60
2022-08-09T23:01:32.739Z,51.70
2022-08-09T23:04:04.340Z,51.70
2022-08-09T23:06:35.590Z,51.80
2022-08-09T23:09:02.683Z,52.00
2022-08-09T23:11:29.178Z,52.00
2022-08-09T23:13:55.644Z,52.00
2022-08-09T23:16:22.113Z,52.10
2022-08-09T23:18:48.576Z,52.00
2022-08-09T23:21:15.047Z,52.10
2022-08-09T23:24:01.566Z,52.20
2022-08-09T23:26:32.322Z,52.20
2022-08-09T23:28:58.783Z,52.10
2022-08-09T23:31:25.244Z,52.40
2022-08-09T23:33:51.709Z,52.30
2022-08-09T23:36:18.180Z,52.40
2022-08-09T23:38:48.589Z,52.30
2022-08-09T23:41:28.295Z,52.20
2022-08-09T23:43:55.615Z,52.30
2022-08-09T23:46:22.099Z,52.40
2022-08-09T23:48:48.548Z,52.60
2022-08-09T23:51:15.013Z,52.70
2022-08-09T23:53:41.482Z,52.90
2022-08-09T23:56:07.942Z,53.00
2022-08-09T23:58:35.484Z,53.00
